LIRN/NAP METAR and TAF weather

Enter ICAO airport designator
Station Type Date Time Source
LIRN METAR 2021/01/16 03:20 UTC NOAA

LIRN 160320Z 05010KT CAVOK 05/M03 Q1013 NOSIG


Station Type Date Time Source
LIRN Decoded METAR 2021/01/16 03:20 UTC NOAA

Napoli / Capodichino, Italy (LIRN) 40-51N 014-18E 72M
Jan 15, 2021 - 10:20 PM EST / 2021.01.16 0320 UTC
Wind: from the NE (050 degrees) at 12 MPH (10 KT):0
Visibility: greater than 7 mile(s):0
Temperature: 41 F (5 C)
Dew Point: 26 F (-3 C)
Relative Humidity: 56%
Pressure (altimeter): 29.91 in. Hg (1013 hPa)
ob: LIRN 160320Z 05010KT CAVOK 05/M03 Q1013 NOSIG
cycle: 3

Station Type Date Time Source
LIRN TAF 2021/01/15 18:25 UTC NOAA

TAF LIRN 151700Z 1518/1618 04012KT 9999 SCT030

Example: see airport list